createdAt,value
2023-04-07T00:04:31.153Z,18.67
2023-04-07T00:09:31.916Z,16.63
2023-04-07T00:14:33.819Z,16.42
2023-04-07T00:19:35.886Z,17.00
2023-04-07T00:24:36.596Z,14.88
2023-04-07T00:29:37.224Z,15.32
2023-04-07T00:34:39.130Z,15.10
2023-04-07T00:39:39.709Z,20.52
2023-04-07T00:44:40.414Z,16.23
2023-04-07T00:49:42.435Z,17.45
2023-04-07T00:54:43.707Z,16.33
2023-04-07T00:59:44.293Z,18.10
2023-04-07T01:04:52.598Z,14.07
2023-04-07T01:09:58.649Z,18.30
2023-04-07T01:15:05.657Z,13.90
2023-04-07T01:20:15.182Z,12.57
2023-04-07T01:25:30.438Z,13.32
2023-04-07T01:30:34.258Z,13.40
2023-04-07T01:35:36.849Z,11.18
2023-04-07T01:40:40.327Z,15.80
2023-04-07T01:45:43.514Z,10.43
2023-04-07T01:50:45.198Z,12.10
2023-04-07T01:55:46.524Z,16.40
2023-04-07T02:00:49.390Z,10.48
2023-04-07T02:06:02.455Z,12.32
2023-04-07T02:11:06.513Z,12.25
2023-04-07T02:16:11.902Z,15.18
2023-04-07T02:21:15.044Z,13.13
2023-04-07T02:26:19.043Z,13.38
2023-04-07T02:31:24.066Z,14.50
2023-04-07T02:36:24.743Z,16.50
2023-04-07T02:41:26.209Z,11.25
2023-04-07T02:46:28.157Z,15.93
2023-04-07T02:51:29.011Z,12.13
2023-04-07T02:56:29.946Z,13.60
2023-04-07T03:01:31.974Z,13.95
2023-04-07T03:06:33.418Z,14.50
2023-04-07T03:11:45.324Z,15.68
2023-04-07T03:16:47.405Z,14.43
2023-04-07T03:21:49.376Z,12.05
2023-04-07T03:26:51.258Z,18.27
2023-04-07T03:32:09.636Z,15.05
2023-04-07T03:37:10.295Z,14.68
2023-04-07T03:42:11.983Z,14.77
2023-04-07T03:47:14.153Z,11.98
2023-04-07T03:52:15.620Z,11.63
2023-04-07T03:57:20.821Z,13.50
2023-04-07T04:02:24.183Z,12.60
2023-04-07T04:07:27.330Z,15.82
2023-04-07T04:12:32.230Z,12.07
2023-04-07T04:17:41.530Z,11.82
2023-04-07T04:22:43.061Z,13.82
2023-04-07T04:27:45.715Z,14.13
2023-04-07T04:32:55.623Z,18.23
2023-04-07T04:38:05.939Z,15.75
2023-04-07T04:43:07.434Z,12.98
2023-04-07T04:48:12.106Z,17.67
2023-04-07T04:53:12.938Z,13.88
2023-04-07T04:58:21.774Z,10.23
2023-04-07T05:03:28.194Z,13.55
2023-04-07T05:08:32.631Z,16.13
2023-04-07T05:13:34.710Z,14.77
2023-04-07T05:18:38.972Z,16.85
2023-04-07T05:23:40.094Z,19.63
2023-04-07T05:28:42.015Z,18.73
2023-04-07T05:33:50.832Z,15.18
2023-04-07T05:38:59.106Z,20.02
2023-04-07T05:44:00.868Z,15.20
2023-04-07T05:49:16.734Z,15.88
2023-04-07T05:54:24.891Z,16.83
2023-04-07T05:59:26.783Z,16.08
2023-04-07T06:04:28.997Z,17.17
2023-04-07T06:09:29.831Z,16.65
2023-04-07T06:14:30.732Z,16.40
2023-04-07T06:19:33.311Z,21.33
2023-04-07T06:24:34.765Z,20.23
2023-04-07T06:29:37.501Z,13.18
2023-04-07T06:34:41.764Z,14.35
2023-04-07T06:39:43.016Z,18.08
2023-04-07T06:44:43.644Z,16.13
2023-04-07T06:49:45.590Z,14.57
2023-04-07T06:54:46.204Z,15.55
2023-04-07T06:59:47.174Z,11.25
2023-04-07T07:04:49.137Z,20.25
2023-04-07T07:09:49.753Z,12.57
2023-04-07T07:14:50.317Z,14.50
2023-04-07T07:19:52.253Z,13.57
2023-04-07T07:24:56.419Z,14.82
2023-04-07T07:29:57.124Z,12.43
2023-04-07T07:34:59.699Z,19.58
2023-04-07T07:40:00.336Z,13.55
2023-04-07T07:45:01.223Z,15.05
2023-04-07T07:50:03.188Z,10.35
2023-04-07T07:55:03.922Z,14.93
2023-04-07T08:00:05.134Z,12.27
2023-04-07T08:05:15.504Z,20.17
2023-04-07T08:10:16.502Z,17.10
2023-04-07T08:15:17.082Z,11.57
2023-04-07T08:20:19.218Z,15.15
2023-04-07T08:25:20.903Z,15.20
2023-04-07T08:30:22.290Z,9.77
2023-04-07T08:35:24.414Z,11.25
2023-04-07T08:40:25.285Z,13.43
2023-04-07T08:45:27.366Z,12.88
2023-04-07T08:50:29.791Z,12.88
2023-04-07T08:55:30.398Z,12.70
2023-04-07T09:00:31.905Z,14.55
2023-04-07T09:05:34.472Z,13.65
2023-04-07T09:10:35.085Z,14.88
2023-04-07T09:15:38.010Z,13.45
2023-04-07T09:21:01.246Z,16.45
2023-04-07T09:26:20.228Z,14.88
2023-04-07T09:31:22.113Z,12.30
2023-04-07T09:36:27.038Z,14.18
2023-04-07T09:41:28.928Z,11.65
2023-04-07T09:46:29.687Z,12.98
2023-04-07T09:51:34.350Z,9.88
2023-04-07T09:56:35.690Z,10.32
2023-04-07T10:01:37.026Z,14.77
2023-04-07T10:06:40.118Z,14.38
2023-04-07T10:11:42.514Z,11.70
2023-04-07T10:16:43.458Z,13.05
2023-04-07T10:21:46.475Z,10.75
2023-04-07T10:26:53.072Z,8.85
2023-04-07T10:31:53.946Z,9.20
2023-04-07T10:42:48.500Z,11.75
2023-04-07T10:48:11.506Z,10.15
2023-04-07T10:53:13.399Z,11.10
2023-04-07T10:58:24.690Z,9.32
2023-04-07T11:03:26.581Z,13.05
2023-04-07T11:08:34.683Z,11.35
2023-04-07T11:13:42.824Z,9.80
2023-04-07T11:18:44.019Z,9.50
2023-04-07T11:23:46.182Z,13.98
2023-04-07T11:28:59.312Z,11.40
2023-04-07T11:34:01.735Z,8.65
2023-04-07T11:39:03.478Z,11.15
2023-04-07T11:44:10.760Z,11.75
2023-04-07T11:49:13.294Z,15.73
2023-04-07T11:54:14.236Z,10.32
2023-04-07T11:59:24.382Z,11.10
2023-04-07T12:04:25.086Z,9.48
2023-04-07T12:09:31.145Z,10.15
2023-04-07T12:14:33.724Z,12.60
2023-04-07T12:19:34.852Z,12.05
2023-04-07T12:24:35.510Z,14.27
2023-04-07T12:29:38.187Z,14.25
2023-04-07T12:34:39.406Z,13.75
2023-04-07T12:39:40.185Z,11.88
2023-04-07T12:44:42.101Z,10.60
2023-04-07T12:49:42.757Z,13.75
2023-04-07T12:54:44.460Z,12.18
2023-04-07T12:59:46.489Z,16.08
2023-04-07T13:04:47.747Z,13.80
2023-04-07T13:09:48.644Z,10.13
2023-04-07T13:14:59.815Z,12.82
2023-04-07T13:20:01.098Z,14.98
2023-04-07T13:25:02.252Z,14.18
2023-04-07T13:30:04.848Z,13.75
2023-04-07T13:35:06.329Z,13.07
2023-04-07T13:40:08.537Z,13.82
2023-04-07T13:45:10.927Z,11.52
2023-04-07T13:50:11.652Z,9.68
2023-04-07T13:55:12.298Z,14.45
2023-04-07T14:00:15.552Z,12.77
2023-04-07T14:05:16.311Z,14.68
2023-04-07T14:10:17.033Z,14.82
2023-04-07T14:15:18.926Z,13.25
2023-04-07T14:20:19.705Z,11.90
2023-04-07T14:25:20.687Z,13.65
2023-04-07T14:30:22.858Z,10.80
2023-04-07T14:35:23.723Z,12.63
2023-04-07T14:40:24.342Z,10.57
2023-04-07T14:45:26.359Z,12.18
2023-04-07T14:50:27.332Z,12.25
2023-04-07T14:55:28.061Z,16.83
2023-04-07T15:00:30.011Z,10.30
2023-04-07T15:05:30.856Z,12.07
2023-04-07T15:10:35.396Z,12.43
2023-04-07T15:15:37.323Z,14.45
2023-04-07T15:20:37.936Z,13.05
2023-04-07T15:25:38.506Z,15.43
2023-04-07T15:30:40.450Z,14.57
2023-04-07T15:35:43.500Z,16.25
2023-04-07T15:40:44.105Z,14.60
2023-04-07T15:45:46.097Z,11.63
2023-04-07T15:50:46.712Z,18.45
2023-04-07T15:55:47.382Z,14.32
2023-04-07T16:00:49.515Z,19.35
2023-04-07T16:05:51.204Z,16.05
2023-04-07T16:10:51.862Z,18.27
2023-04-07T16:15:58.451Z,13.63
2023-04-07T16:20:59.215Z,16.35
2023-04-07T16:25:59.858Z,13.38
2023-04-07T16:31:02.972Z,14.65
2023-04-07T16:36:03.601Z,18.20
2023-04-07T16:41:04.952Z,16.48
2023-04-07T16:46:07.263Z,14.25
2023-04-07T16:51:08.044Z,13.68
2023-04-07T16:56:16.300Z,17.05
2023-04-07T17:01:18.396Z,13.30
2023-04-07T17:06:19.045Z,21.73
2023-04-07T17:11:19.662Z,10.95
2023-04-07T17:16:21.806Z,12.13
2023-04-07T17:21:22.457Z,14.45
2023-04-07T17:26:24.256Z,11.80
2023-04-07T17:31:26.295Z,11.85
2023-04-07T17:36:27.709Z,12.27
2023-04-07T17:41:29.143Z,11.98
2023-04-07T17:46:31.174Z,14.07
2023-04-07T17:51:32.766Z,13.15
2023-04-07T17:56:33.552Z,15.25
2023-04-07T18:01:35.531Z,13.38
2023-04-07T18:06:37.189Z,16.48
2023-04-07T18:11:37.878Z,15.27
2023-04-07T18:16:40.414Z,17.45
2023-04-07T18:21:41.059Z,13.95
2023-04-07T18:26:43.745Z,16.67
2023-04-07T18:31:45.872Z,14.70
2023-04-07T18:36:47.660Z,19.90
2023-04-07T18:41:48.589Z,18.42
2023-04-07T18:46:50.597Z,18.08
2023-04-07T18:51:52.177Z,16.83
2023-04-07T18:56:53.500Z,18.50
2023-04-07T19:01:56.648Z,23.35
2023-04-07T19:06:57.583Z,20.30
2023-04-07T19:11:58.279Z,20.58
2023-04-07T19:17:00.382Z,23.67
2023-04-07T19:22:01.038Z,23.08
2023-04-07T19:27:02.083Z,18.63
2023-04-07T19:32:04.651Z,24.58
2023-04-07T19:37:05.407Z,24.50
2023-04-07T19:42:05.991Z,19.67
2023-04-07T19:47:08.204Z,19.60
2023-04-07T19:52:08.780Z,23.80
2023-04-07T19:57:09.522Z,22.50
2023-04-07T20:02:11.506Z,19.80
2023-04-07T20:07:12.180Z,16.38
2023-04-07T20:12:12.744Z,19.80
2023-04-07T20:17:14.757Z,16.13
2023-04-07T20:22:15.566Z,16.98
2023-04-07T20:27:16.262Z,18.70
2023-04-07T20:32:19.267Z,14.98
2023-04-07T20:37:20.570Z,16.17
2023-04-07T20:42:21.203Z,13.25
2023-04-07T20:47:23.648Z,16.80
2023-04-07T20:52:25.238Z,17.50
2023-04-07T20:57:26.676Z,18.88
2023-04-07T21:02:29.106Z,19.77
2023-04-07T21:07:29.829Z,22.23
2023-04-07T21:12:30.677Z,22.33
2023-04-07T21:17:32.610Z,27.25
2023-04-07T21:22:33.228Z,25.35
2023-04-07T21:27:33.906Z,20.58
2023-04-07T21:32:36.586Z,18.85
2023-04-07T21:37:37.260Z,17.63
2023-04-07T21:42:37.916Z,21.88
2023-04-07T21:47:39.864Z,18.63
2023-04-07T21:52:41.202Z,15.27
2023-04-07T21:57:41.873Z,20.02
2023-04-07T22:02:45.157Z,18.48
2023-04-07T22:07:46.798Z,15.10
2023-04-07T22:12:47.408Z,16.85
2023-04-07T22:17:49.750Z,18.88
2023-04-07T22:22:50.621Z,15.50
2023-04-07T22:27:52.313Z,17.90
2023-04-07T22:32:54.287Z,19.30
2023-04-07T22:37:54.900Z,21.65
2023-04-07T22:42:55.591Z,20.77
2023-04-07T22:47:57.551Z,21.67
2023-04-07T22:52:59.196Z,20.35
2023-04-07T22:57:59.778Z,25.20
2023-04-07T23:03:01.866Z,22.25
2023-04-07T23:08:02.577Z,26.80
2023-04-07T23:13:03.167Z,21.58
2023-04-07T23:18:05.089Z,18.60
2023-04-07T23:23:05.786Z,23.00
2023-04-07T23:28:06.377Z,23.35
2023-04-07T23:33:08.276Z,27.05
2023-04-07T23:38:10.897Z,25.08
2023-04-07T23:43:11.728Z,24.75
2023-04-07T23:48:13.636Z,24.80
2023-04-07T23:53:14.299Z,24.92
2023-04-07T23:58:14.883Z,26.33
